Etusivu
METAR-TAF:

METAR-TAF

Lentoasemat :

Ouarzazate, Marokko

Leveyspiiri: 30-56N, Pituuspiiri: 006-54W, korkeus merenpinnasta: 1139 m

Tämänhetkinen sää

Tämä raportti tehtiin 26 minuuttia sitten, kello 13.00 UTC
Tuuli 4 kn lännestä/lounaasta
Lämpötila 14°C
Kosteus 31%
Ilmanpaine 1020 hPa
Näkyvyys 10 km tai enemmän
Hajanaisia pilviä 3000 ft:n korkeudessa

METAR: GMMZ 251300Z 25004KT 9999 SCT030 14/M03 Q1020 NOSIG

Aika: 14:26 (13:26 UTC)

Sääennuste

Tämä raportti tehtiin 2 tuntia ja 26 minuuttia sitten, kello 11.00 UTC
Ennuste voimassa 25. päivästä klo 12 UTC - 26. päivään klo 18 UTC
Tuuli 5 kn lännestä
Näkyvyys 10 km tai enemmän
Hajanaisia pilviä 3000 ft:n korkeudessa

TAF: GMMZ 251100Z 2512/2618 27005KT 9999 SCT030

Säähavainnot ja -ennusteet yli 4000 lentoasemalta (METAR- ja TAF-raportit).

Käytössä olevat sääasemat on merkitty karttaan keltaisilla ja punaisilla pisteillä.

Aseta hiiri pisteen päälle nähdäksesi sääaseman nimen.

Klikkaa sitten nähdäksesi säähavainnot ja -ennusteet.

Kartan vaihtaminen: klikkaa mustalla rastilla varustettuja vihreitä pisteitä, niin voit zoomata sisään; viivalla varustettua vihreää pistettä, niin voit zoomata ulos tai vihreitä nuolia, niin pääset viereisille kartoille.


METAR-TAF: